createdAt,value
2016-11-08T00:00:12.077Z,934.42
2016-11-08T00:01:22.516Z,934.44
2016-11-08T00:02:32.955Z,934.43
2016-11-08T00:03:43.882Z,934.49
2016-11-08T00:05:08.863Z,934.5
2016-11-08T00:06:19.401Z,934.51
2016-11-08T00:09:09.370Z,934.56
2016-11-08T00:10:34.575Z,934.61
2016-11-08T00:11:45.021Z,934.64
2016-11-08T00:12:55.459Z,934.68
2016-11-08T00:14:05.920Z,934.69
2016-11-08T00:15:16.452Z,934.68
2016-11-08T00:16:27.185Z,934.64
2016-11-08T00:17:37.712Z,934.67
2016-11-08T00:18:48.246Z,934.67
2016-11-08T00:19:58.781Z,934.68
2016-11-08T00:21:09.322Z,934.67
2016-11-08T00:22:19.952Z,934.66
2016-11-08T00:23:30.533Z,934.66
2016-11-08T00:24:55.594Z,934.67
2016-11-08T00:26:06.127Z,934.7
2016-11-08T00:27:16.663Z,934.72
2016-11-08T00:28:27.296Z,934.76
2016-11-08T00:29:38.327Z,934.79
2016-11-08T00:31:03.386Z,934.8
2016-11-08T00:32:13.919Z,934.78
2016-11-08T00:33:24.653Z,934.8
2016-11-08T00:34:35.185Z,934.77
2016-11-08T00:36:00.242Z,934.77
2016-11-08T00:37:10.773Z,934.76
2016-11-08T00:38:35.829Z,934.71
2016-11-08T00:40:00.885Z,934.7
2016-11-08T00:41:11.455Z,934.67
2016-11-08T00:42:22.025Z,934.64
2016-11-08T00:45:12.336Z,934.69
2016-11-08T00:46:22.871Z,934.7
2016-11-08T00:47:33.402Z,934.73
2016-11-08T00:48:43.934Z,934.77
2016-11-08T00:49:54.539Z,934.75
2016-11-08T00:51:19.597Z,934.77
2016-11-08T00:52:30.128Z,934.75
2016-11-08T00:53:40.663Z,934.71
2016-11-08T00:54:51.393Z,934.69
2016-11-08T00:56:01.922Z,934.64
2016-11-08T00:57:12.453Z,934.63
2016-11-08T00:58:23.024Z,934.67
2016-11-08T00:59:33.559Z,934.67
2016-11-08T01:00:44.325Z,934.71
2016-11-08T01:01:54.861Z,934.7
2016-11-08T01:03:19.921Z,934.74
2016-11-08T01:04:30.451Z,934.77
2016-11-08T01:05:40.980Z,934.73
2016-11-08T01:06:51.508Z,934.76
2016-11-08T01:08:02.039Z,934.77
2016-11-08T01:09:12.570Z,934.84
2016-11-08T01:10:37.655Z,934.79
2016-11-08T01:11:48.290Z,934.79
2016-11-08T01:13:13.350Z,934.81
2016-11-08T01:14:23.886Z,934.81
2016-11-08T01:15:34.423Z,934.8
2016-11-08T01:16:44.959Z,934.85
2016-11-08T01:17:55.502Z,934.78
2016-11-08T01:19:06.035Z,934.75
2016-11-08T01:20:16.566Z,934.76
2016-11-08T01:21:27.095Z,934.71
2016-11-08T01:22:37.733Z,934.67
2016-11-08T01:25:27.846Z,934.64
2016-11-08T01:26:38.380Z,934.62
2016-11-08T01:28:17.928Z,934.6
2016-11-08T01:29:28.349Z,934.56
2016-11-08T01:30:53.312Z,934.61
2016-11-08T01:32:03.724Z,934.56
2016-11-08T01:33:14.139Z,934.57
2016-11-08T01:34:24.551Z,934.57
2016-11-08T01:35:34.969Z,934.58
2016-11-08T01:36:45.387Z,934.56
2016-11-08T01:38:10.349Z,934.53
2016-11-08T01:39:20.801Z,934.48
2016-11-08T01:40:31.219Z,934.45
2016-11-08T01:41:41.628Z,934.44
2016-11-08T01:42:52.040Z,934.42
2016-11-08T01:44:02.491Z,934.4
2016-11-08T01:45:12.902Z,934.4
2016-11-08T01:46:23.800Z,934.4
2016-11-08T01:47:34.214Z,934.38
2016-11-08T01:48:44.667Z,934.37
2016-11-08T01:49:55.283Z,934.36
2016-11-08T01:51:06.177Z,934.37
2016-11-08T01:52:16.595Z,934.34
2016-11-08T01:53:27.007Z,934.34
2016-11-08T01:56:02.443Z,934.29
2016-11-08T01:57:12.855Z,934.3
2016-11-08T01:58:23.299Z,934.29
2016-11-08T01:59:33.716Z,934.32
2016-11-08T02:00:44.326Z,934.34
2016-11-08T02:01:54.741Z,934.33
2016-11-08T02:03:05.152Z,934.31
2016-11-08T02:04:15.598Z,934.32
2016-11-08T02:05:26.015Z,934.3
2016-11-08T02:06:36.627Z,934.31
2016-11-08T02:07:47.046Z,934.31
2016-11-08T02:08:57.457Z,934.26
2016-11-08T02:10:07.877Z,934.24
2016-11-08T02:11:18.298Z,934.18
2016-11-08T02:12:28.914Z,934.14
2016-11-08T02:13:39.329Z,934.12
2016-11-08T02:14:49.737Z,934.06
2016-11-08T02:16:00.143Z,934.04
2016-11-08T02:17:10.563Z,934.02
2016-11-08T02:18:21.174Z,934.04
2016-11-08T02:19:31.589Z,933.98
2016-11-08T02:20:42.002Z,933.99
2016-11-08T02:21:52.412Z,933.98
2016-11-08T02:23:02.824Z,934
2016-11-08T02:24:13.346Z,933.97
2016-11-08T02:25:23.760Z,933.95
2016-11-08T02:26:34.179Z,933.94
2016-11-08T02:27:45.078Z,933.96
2016-11-08T02:28:55.489Z,933.86
2016-11-08T02:30:20.654Z,933.85
2016-11-08T02:31:31.558Z,933.81
2016-11-08T02:34:06.941Z,933.8
2016-11-08T02:35:17.681Z,933.78
2016-11-08T02:36:28.246Z,933.73
2016-11-08T02:37:38.780Z,933.73
2016-11-08T02:38:49.312Z,933.7
2016-11-08T02:39:59.843Z,933.65
2016-11-08T02:41:10.375Z,933.62
2016-11-08T02:42:20.906Z,933.65
2016-11-08T02:43:31.441Z,933.62
2016-11-08T02:44:41.971Z,933.65
2016-11-08T02:45:52.500Z,933.6
2016-11-08T02:47:03.232Z,933.64
2016-11-08T02:48:13.769Z,933.64
2016-11-08T02:49:38.828Z,933.64
2016-11-08T02:50:49.362Z,933.6
2016-11-08T02:51:59.892Z,933.61
2016-11-08T02:53:10.425Z,933.61
2016-11-08T02:54:20.954Z,933.64
2016-11-08T02:55:31.488Z,933.6
2016-11-08T02:56:42.026Z,933.62
2016-11-08T02:57:52.758Z,933.61
2016-11-08T02:59:03.288Z,933.58
2016-11-08T03:00:28.344Z,933.62
2016-11-08T03:01:38.873Z,933.64
2016-11-08T03:02:49.479Z,933.6
2016-11-08T03:04:00.110Z,933.6
2016-11-08T03:05:10.642Z,933.6
2016-11-08T03:06:21.238Z,933.54
2016-11-08T03:07:31.769Z,933.58
2016-11-08T03:08:42.497Z,933.56
2016-11-08T03:09:53.029Z,933.56
2016-11-08T03:11:03.561Z,933.55
2016-11-08T03:12:14.096Z,933.53
2016-11-08T03:13:24.627Z,933.46
2016-11-08T03:14:35.262Z,933.46
2016-11-08T03:15:45.797Z,933.46
2016-11-08T03:16:56.428Z,933.44
2016-11-08T03:18:21.483Z,933.44
2016-11-08T03:19:32.511Z,933.41
2016-11-08T03:20:43.241Z,933.39
2016-11-08T03:22:08.331Z,933.37
2016-11-08T03:23:18.859Z,933.34
2016-11-08T03:24:29.432Z,933.31
2016-11-08T03:25:40.166Z,933.28
2016-11-08T03:26:50.699Z,933.27
2016-11-08T03:28:01.760Z,933.23
2016-11-08T03:29:12.288Z,933.26
2016-11-08T03:30:22.863Z,933.27
2016-11-08T03:31:33.441Z,933.27
2016-11-08T03:32:43.970Z,933.27
2016-11-08T03:33:54.502Z,933.26
2016-11-08T03:35:05.037Z,933.24
2016-11-08T03:36:15.672Z,933.27
2016-11-08T03:37:26.246Z,933.22
2016-11-08T03:38:51.305Z,933.19
2016-11-08T03:40:01.826Z,933.21
2016-11-08T03:41:12.240Z,933.16
2016-11-08T03:42:22.754Z,933.23
2016-11-08T03:43:33.173Z,933.18
2016-11-08T03:44:43.586Z,933.19
2016-11-08T03:45:53.997Z,933.16
2016-11-08T03:47:04.512Z,933.11
2016-11-08T03:48:14.923Z,933.14
2016-11-08T03:49:25.348Z,933.1
2016-11-08T03:50:35.888Z,933.09
2016-11-08T03:51:46.947Z,933.09
2016-11-08T03:52:57.675Z,933.03
2016-11-08T03:54:08.208Z,933.01
2016-11-08T03:55:18.741Z,932.99
2016-11-08T03:56:43.798Z,932.98
2016-11-08T03:57:55.321Z,932.92
2016-11-08T03:59:05.851Z,932.92
2016-11-08T04:00:16.386Z,932.88
2016-11-08T04:01:26.960Z,932.88
2016-11-08T04:02:37.499Z,932.83
2016-11-08T04:03:48.036Z,932.86
2016-11-08T04:04:58.566Z,932.84
2016-11-08T04:06:09.099Z,932.83
2016-11-08T04:07:19.633Z,932.84
2016-11-08T04:08:30.164Z,932.84
2016-11-08T04:09:40.795Z,932.82
2016-11-08T04:10:51.325Z,932.83
2016-11-08T04:12:01.859Z,932.82
2016-11-08T04:13:12.461Z,932.85
2016-11-08T04:14:52.035Z,932.9
2016-11-08T04:16:02.448Z,932.86
2016-11-08T04:17:12.865Z,932.84
2016-11-08T04:18:23.279Z,932.91
2016-11-08T04:19:33.691Z,932.9
2016-11-08T04:20:44.305Z,932.87
2016-11-08T04:21:54.720Z,932.9
2016-11-08T04:23:05.140Z,932.88
2016-11-08T04:24:15.558Z,932.87
2016-11-08T04:25:25.972Z,932.9
2016-11-08T04:26:36.484Z,932.84
2016-11-08T04:27:46.896Z,932.88
2016-11-08T04:28:57.792Z,932.86
2016-11-08T04:30:08.208Z,932.86
2016-11-08T04:31:18.617Z,932.82
2016-11-08T04:32:29.134Z,932.78
2016-11-08T04:33:39.544Z,932.79
2016-11-08T04:34:49.955Z,932.77
2016-11-08T04:36:00.369Z,932.72
2016-11-08T04:37:10.787Z,932.78
2016-11-08T04:38:21.299Z,932.74
2016-11-08T04:39:31.710Z,932.75
2016-11-08T04:40:42.132Z,932.76
2016-11-08T04:41:52.544Z,932.76
2016-11-08T04:43:02.993Z,932.77
2016-11-08T04:44:13.608Z,932.74
2016-11-08T04:45:24.020Z,932.71
2016-11-08T04:46:34.448Z,932.71
2016-11-08T04:47:44.854Z,932.7
2016-11-08T04:48:55.273Z,932.7
2016-11-08T04:50:05.836Z,932.64
2016-11-08T04:51:16.373Z,932.61
2016-11-08T04:52:26.952Z,932.63
2016-11-08T04:53:37.479Z,932.62
2016-11-08T04:54:48.009Z,932.59
2016-11-08T04:55:58.571Z,932.62
2016-11-08T04:57:09.102Z,932.59
2016-11-08T04:58:19.660Z,932.56
2016-11-08T04:59:30.189Z,932.59
2016-11-08T05:00:40.721Z,932.57
2016-11-08T05:01:51.249Z,932.6
2016-11-08T05:03:01.817Z,932.58
2016-11-08T05:04:26.874Z,932.57
2016-11-08T05:05:37.406Z,932.63
2016-11-08T05:06:47.944Z,932.56
2016-11-08T05:07:58.672Z,932.6
2016-11-08T05:09:09.248Z,932.54
2016-11-08T05:10:19.778Z,932.54
2016-11-08T05:11:30.308Z,932.54
2016-11-08T05:12:40.977Z,932.55
2016-11-08T05:13:51.505Z,932.53
2016-11-08T05:15:02.034Z,932.52
2016-11-08T05:16:12.574Z,932.59
2016-11-08T05:17:23.101Z,932.52
2016-11-08T05:18:33.632Z,932.56
2016-11-08T05:19:44.160Z,932.56
2016-11-08T05:20:55.187Z,932.55
2016-11-08T05:22:05.720Z,932.55
2016-11-08T05:23:16.752Z,932.53
2016-11-08T05:24:27.387Z,932.5
2016-11-08T05:25:37.918Z,932.47
2016-11-08T05:26:48.451Z,932.53
2016-11-08T05:27:58.985Z,932.51
2016-11-08T05:29:09.500Z,932.58
2016-11-08T05:30:20.140Z,932.54
2016-11-08T05:31:30.578Z,932.5
2016-11-08T05:32:41.015Z,932.51
2016-11-08T05:33:51.455Z,932.5
2016-11-08T05:35:01.897Z,932.53
2016-11-08T05:36:13.512Z,932.52
2016-11-08T05:37:23.952Z,932.53
2016-11-08T05:38:34.429Z,932.56
2016-11-08T05:39:44.868Z,932.56
2016-11-08T05:40:55.307Z,932.54
2016-11-08T05:42:05.846Z,932.53
2016-11-08T05:43:16.279Z,932.51
2016-11-08T05:44:26.722Z,932.48
2016-11-08T05:45:37.159Z,932.46
2016-11-08T05:46:47.597Z,932.49
2016-11-08T05:47:58.139Z,932.49
2016-11-08T05:49:08.577Z,932.48
2016-11-08T05:50:19.019Z,932.52
2016-11-08T05:51:29.493Z,932.51
2016-11-08T05:52:39.933Z,932.58
2016-11-08T05:53:50.374Z,932.54
2016-11-08T05:55:00.852Z,932.57
2016-11-08T05:56:11.769Z,932.56
2016-11-08T05:57:22.094Z,932.62
2016-11-08T05:58:32.414Z,932.57
2016-11-08T05:59:42.936Z,932.57
2016-11-08T06:00:53.258Z,932.55
2016-11-08T06:02:03.579Z,932.57
2016-11-08T06:03:13.898Z,932.57
2016-11-08T06:04:24.220Z,932.55
2016-11-08T06:05:34.683Z,932.56
2016-11-08T06:06:45.037Z,932.52
2016-11-08T06:07:55.355Z,932.55
2016-11-08T06:09:05.675Z,932.57
2016-11-08T06:10:16.018Z,932.57
2016-11-08T06:11:26.536Z,932.54
2016-11-08T06:12:36.893Z,932.56
2016-11-08T06:13:47.213Z,932.56
2016-11-08T06:14:57.533Z,932.56
2016-11-08T06:16:07.854Z,932.53
2016-11-08T06:17:18.272Z,932.48
2016-11-08T06:18:28.588Z,932.48
2016-11-08T06:19:38.950Z,932.47
2016-11-08T06:20:49.269Z,932.47
2016-11-08T06:21:59.592Z,932.42
2016-11-08T06:23:09.913Z,932.46
2016-11-08T06:24:20.236Z,932.47
2016-11-08T06:25:31.368Z,932.5
2016-11-08T06:26:41.691Z,932.5
2016-11-08T06:27:52.012Z,932.51
2016-11-08T06:29:02.535Z,932.53
2016-11-08T06:30:12.850Z,932.51
2016-11-08T06:31:23.173Z,932.56
2016-11-08T06:32:33.494Z,932.57
2016-11-08T06:33:43.858Z,932.54
2016-11-08T06:34:54.277Z,932.57
2016-11-08T06:36:05.115Z,932.56
2016-11-08T06:37:15.437Z,932.57
2016-11-08T06:38:26.235Z,932.61
2016-11-08T06:39:36.591Z,932.57
2016-11-08T06:40:46.909Z,932.6
2016-11-08T06:41:57.237Z,932.59
2016-11-08T06:43:07.557Z,932.61
2016-11-08T06:44:17.877Z,932.58
2016-11-08T06:45:28.199Z,932.56
2016-11-08T06:46:38.522Z,932.62
2016-11-08T06:48:03.413Z,932.63
2016-11-08T06:49:13.732Z,932.64
2016-11-08T06:50:24.051Z,932.62
2016-11-08T06:51:34.370Z,932.65
2016-11-08T06:52:44.697Z,932.62
2016-11-08T06:53:55.055Z,932.68
2016-11-08T06:55:05.371Z,932.7
2016-11-08T06:56:15.694Z,932.7
2016-11-08T06:57:26.013Z,932.72
2016-11-08T06:58:36.393Z,932.74
2016-11-08T06:59:46.804Z,932.77
2016-11-08T07:00:57.214Z,932.73
2016-11-08T07:02:22.179Z,932.72
2016-11-08T07:03:32.590Z,932.7
2016-11-08T07:04:43.004Z,932.67
2016-11-08T07:06:07.969Z,932.68
2016-11-08T07:07:18.387Z,932.68
2016-11-08T07:08:28.997Z,932.68
2016-11-08T07:09:39.410Z,932.68
2016-11-08T07:10:49.821Z,932.67
2016-11-08T07:12:00.231Z,932.71
2016-11-08T07:13:10.861Z,932.68
2016-11-08T07:14:21.282Z,932.66
2016-11-08T07:15:31.697Z,932.7
2016-11-08T07:16:42.108Z,932.68
2016-11-08T07:19:17.480Z,932.66
2016-11-08T07:20:27.896Z,932.7
2016-11-08T07:21:38.308Z,932.72
2016-11-08T07:22:48.719Z,932.7
2016-11-08T07:23:59.237Z,932.74
2016-11-08T07:25:09.649Z,932.76
2016-11-08T07:26:20.060Z,932.79
2016-11-08T07:27:30.475Z,932.8
2016-11-08T07:28:40.883Z,932.81
2016-11-08T07:29:51.492Z,932.81
2016-11-08T07:31:01.904Z,932.79
2016-11-08T07:32:12.318Z,932.79
2016-11-08T07:33:22.728Z,932.81
2016-11-08T07:34:33.145Z,932.82
2016-11-08T07:35:44.077Z,932.82
2016-11-08T07:36:54.553Z,932.84
2016-11-08T07:38:05.085Z,932.84
2016-11-08T07:39:15.621Z,932.85
2016-11-08T07:40:26.183Z,932.87
2016-11-08T07:41:36.917Z,932.86
2016-11-08T07:42:47.445Z,932.89
2016-11-08T07:43:57.959Z,932.83
2016-11-08T07:45:08.396Z,932.83
2016-11-08T07:46:19.816Z,932.82
2016-11-08T07:47:30.458Z,932.78
2016-11-08T07:48:40.903Z,932.73
2016-11-08T07:49:51.348Z,932.73
2016-11-08T07:51:01.788Z,932.74
2016-11-08T07:52:12.230Z,932.74
2016-11-08T07:53:22.672Z,932.77
2016-11-08T07:54:33.115Z,932.72
2016-11-08T07:55:43.551Z,932.72
2016-11-08T07:56:53.994Z,932.72
2016-11-08T07:58:04.432Z,932.73
2016-11-08T07:59:15.065Z,932.73
2016-11-08T08:00:40.080Z,932.78
2016-11-08T08:02:05.125Z,932.83
2016-11-08T08:03:15.564Z,932.81
2016-11-08T08:04:26.200Z,932.82
2016-11-08T08:07:01.627Z,932.84
2016-11-08T08:08:12.103Z,932.89
2016-11-08T08:09:22.541Z,932.94
2016-11-08T08:10:33.181Z,932.94
2016-11-08T08:11:58.166Z,932.91
2016-11-08T08:13:08.607Z,932.98
2016-11-08T08:14:19.043Z,933.02
2016-11-08T08:15:29.513Z,933.03
2016-11-08T08:16:39.952Z,933.04
2016-11-08T08:18:04.935Z,933.07
2016-11-08T08:19:15.378Z,933.06
2016-11-08T08:20:25.815Z,933.12
2016-11-08T08:21:36.254Z,933.14
2016-11-08T08:22:46.698Z,933.18
2016-11-08T08:23:57.130Z,933.23
2016-11-08T08:25:07.572Z,933.2
2016-11-08T08:26:18.043Z,933.23
2016-11-08T08:27:28.473Z,933.26
2016-11-08T08:28:38.908Z,933.27
2016-11-08T08:29:49.344Z,933.24
2016-11-08T08:30:59.775Z,933.29
2016-11-08T08:32:10.411Z,933.32
2016-11-08T08:33:20.847Z,933.35
2016-11-08T08:34:31.285Z,933.35
2016-11-08T08:35:41.722Z,933.33
2016-11-08T08:36:52.161Z,933.35
2016-11-08T08:38:02.632Z,933.32
2016-11-08T08:39:13.077Z,933.29
2016-11-08T08:40:23.511Z,933.25
2016-11-08T08:41:33.943Z,933.26
2016-11-08T08:42:44.402Z,933.27
2016-11-08T08:43:54.816Z,933.28
2016-11-08T08:45:05.132Z,933.29
2016-11-08T08:46:15.508Z,933.35
2016-11-08T08:47:40.394Z,933.39
2016-11-08T08:48:50.713Z,933.41
2016-11-08T08:50:01.031Z,933.43
2016-11-08T08:51:11.349Z,933.44
2016-11-08T08:52:21.673Z,933.51
2016-11-08T08:53:31.992Z,933.51
2016-11-08T08:54:42.512Z,933.57
2016-11-08T08:55:52.829Z,933.61
2016-11-08T08:57:03.149Z,933.64
2016-11-08T08:58:13.476Z,933.64
2016-11-08T09:00:48.712Z,933.72
2016-11-08T09:01:59.026Z,933.74
2016-11-08T09:03:09.377Z,933.75
2016-11-08T09:04:19.698Z,933.8
2016-11-08T09:05:44.594Z,933.82
2016-11-08T09:06:54.952Z,933.85
2016-11-08T09:08:05.271Z,933.82
2016-11-08T09:09:15.593Z,933.86
2016-11-08T09:10:25.910Z,933.89
2016-11-08T09:11:36.333Z,933.92
2016-11-08T09:12:46.653Z,933.91
2016-11-08T09:13:56.991Z,933.95
2016-11-08T09:15:07.413Z,933.95
2016-11-08T09:16:17.823Z,933.99
2016-11-08T09:17:42.784Z,933.97
2016-11-08T09:18:53.197Z,933.99
2016-11-08T09:20:03.607Z,933.97
2016-11-08T09:21:14.019Z,933.98
2016-11-08T09:22:24.432Z,933.94
2016-11-08T09:23:34.872Z,933.93
2016-11-08T09:24:45.282Z,933.95
2016-11-08T09:25:55.690Z,933.91
2016-11-08T09:27:06.100Z,933.92
2016-11-08T09:28:31.102Z,933.91
2016-11-08T09:29:41.538Z,933.99
2016-11-08T09:30:51.956Z,933.95
2016-11-08T09:32:02.372Z,933.93
2016-11-08T09:33:12.984Z,933.94
2016-11-08T09:34:23.403Z,933.91
2016-11-08T09:35:33.823Z,933.91
2016-11-08T09:36:44.236Z,933.86
2016-11-08T09:37:54.781Z,933.8
2016-11-08T09:39:05.744Z,933.81
2016-11-08T09:40:16.161Z,933.77
2016-11-08T09:41:41.121Z,933.74
2016-11-08T09:44:16.492Z,933.75
2016-11-08T09:45:26.901Z,933.73
2016-11-08T09:46:37.314Z,933.72
2016-11-08T09:47:47.729Z,933.73
2016-11-08T09:48:58.140Z,933.75
2016-11-08T09:50:08.552Z,933.79
2016-11-08T09:52:58.473Z,933.82
2016-11-08T09:54:08.885Z,933.82
2016-11-08T09:55:19.399Z,933.84
2016-11-08T09:56:29.813Z,933.86
2016-11-08T09:57:40.221Z,933.91
2016-11-08T09:58:50.615Z,933.92
2016-11-08T10:00:00.938Z,933.89
2016-11-08T10:01:11.460Z,933.94
2016-11-08T10:02:21.782Z,933.94
2016-11-08T10:03:32.100Z,933.94
2016-11-08T10:04:42.417Z,933.88
2016-11-08T10:05:52.742Z,933.86
2016-11-08T10:07:03.061Z,933.89
2016-11-08T10:08:13.416Z,933.88
2016-11-08T10:09:23.740Z,933.86
2016-11-08T10:10:34.060Z,933.9
2016-11-08T10:11:44.382Z,933.93
2016-11-08T10:12:54.704Z,933.91
2016-11-08T10:14:05.021Z,933.9
2016-11-08T10:15:15.340Z,933.93
2016-11-08T10:17:50.559Z,933.95
2016-11-08T10:19:00.877Z,934
2016-11-08T10:20:11.250Z,934
2016-11-08T10:21:21.572Z,934.05
2016-11-08T10:22:31.895Z,934.09
2016-11-08T10:23:42.689Z,934.11
2016-11-08T10:24:53.013Z,934.1
2016-11-08T10:26:03.331Z,934.1
2016-11-08T10:27:13.653Z,934.12
2016-11-08T10:28:23.975Z,934.15
2016-11-08T10:29:34.294Z,934.17
2016-11-08T10:30:45.093Z,934.16
2016-11-08T10:32:09.991Z,934.18
2016-11-08T10:33:20.317Z,934.21
2016-11-08T10:34:30.635Z,934.23
2016-11-08T10:35:41.156Z,934.22
2016-11-08T10:36:51.478Z,934.23
2016-11-08T10:38:01.826Z,934.2
2016-11-08T10:39:12.145Z,934.23
2016-11-08T10:40:22.473Z,934.21
2016-11-08T10:41:32.807Z,934.27
2016-11-08T10:42:57.691Z,934.24
2016-11-08T10:44:08.013Z,934.33
2016-11-08T10:45:18.334Z,934.32
2016-11-08T10:46:28.658Z,934.38
2016-11-08T10:47:38.978Z,934.37
2016-11-08T10:49:03.865Z,934.4
2016-11-08T10:50:14.212Z,934.42
2016-11-08T10:51:24.533Z,934.43
2016-11-08T10:52:34.854Z,934.42
2016-11-08T10:53:45.175Z,934.41
2016-11-08T10:54:55.531Z,934.39
2016-11-08T10:56:20.416Z,934.38
2016-11-08T10:57:30.849Z,934.34
2016-11-08T10:58:41.291Z,934.36
2016-11-08T11:00:06.276Z,934.33
2016-11-08T11:01:16.719Z,934.27
2016-11-08T11:02:27.259Z,934.27
2016-11-08T11:03:37.697Z,934.28
2016-11-08T11:04:48.133Z,934.32
2016-11-08T11:05:58.621Z,934.32
2016-11-08T11:07:09.092Z,934.34
2016-11-08T11:08:19.534Z,934.38
2016-11-08T11:09:29.974Z,934.45
2016-11-08T11:10:40.413Z,934.44
2016-11-08T11:11:50.856Z,934.45
2016-11-08T11:13:01.294Z,934.42
2016-11-08T11:14:11.730Z,934.38
2016-11-08T11:15:22.175Z,934.37
2016-11-08T11:16:32.616Z,934.32
2016-11-08T11:17:43.087Z,934.35
2016-11-08T11:18:53.729Z,934.34
2016-11-08T11:20:18.715Z,934.33
2016-11-08T11:21:29.153Z,934.36
2016-11-08T11:22:54.135Z,934.38
2016-11-08T11:24:04.570Z,934.32
2016-11-08T11:25:15.051Z,934.37
2016-11-08T11:26:25.489Z,934.35
2016-11-08T11:27:35.923Z,934.37
2016-11-08T11:28:46.861Z,934.37
2016-11-08T11:30:12.413Z,934.39
2016-11-08T11:31:22.943Z,934.36
2016-11-08T11:32:33.471Z,934.36
2016-11-08T11:33:44.042Z,934.32
2016-11-08T11:34:54.612Z,934.32
2016-11-08T11:36:05.147Z,934.28
2016-11-08T11:37:15.679Z,934.28
2016-11-08T11:38:26.214Z,934.26
2016-11-08T11:39:36.747Z,934.28
2016-11-08T11:40:47.375Z,934.3
2016-11-08T11:41:57.907Z,934.33
2016-11-08T11:43:08.435Z,934.35
2016-11-08T11:44:18.964Z,934.39
2016-11-08T11:45:29.500Z,934.37
2016-11-08T11:46:40.319Z,934.37
2016-11-08T11:47:50.849Z,934.36
2016-11-08T11:49:01.380Z,934.37
2016-11-08T11:50:12.407Z,934.34
2016-11-08T11:51:22.937Z,934.34
2016-11-08T11:53:58.527Z,934.25
2016-11-08T11:55:09.054Z,934.27
2016-11-08T11:56:19.582Z,934.26
2016-11-08T11:57:30.186Z,934.18
2016-11-08T11:58:40.921Z,934.2
2016-11-08T11:59:51.453Z,934.23
2016-11-08T12:01:01.989Z,934.22
2016-11-08T12:02:12.530Z,934.24
2016-11-08T12:03:23.063Z,934.25
2016-11-08T12:04:33.577Z,934.27
2016-11-08T12:05:44.029Z,934.26
2016-11-08T12:07:08.990Z,934.33
2016-11-08T12:08:48.501Z,934.31
2016-11-08T12:09:58.909Z,934.33
2016-11-08T12:11:09.320Z,934.39
2016-11-08T12:12:19.749Z,934.41
2016-11-08T12:13:30.159Z,934.42
2016-11-08T12:14:55.121Z,934.41
2016-11-08T12:16:05.535Z,934.41
2016-11-08T12:17:15.951Z,934.41
2016-11-08T12:18:26.363Z,934.41
2016-11-08T12:19:36.875Z,934.4
2016-11-08T12:20:47.283Z,934.41
2016-11-08T12:21:57.710Z,934.38
2016-11-08T12:23:08.152Z,934.39
2016-11-08T12:24:33.600Z,934.36
2016-11-08T12:25:44.012Z,934.38
2016-11-08T12:26:54.425Z,934.36
2016-11-08T12:28:04.843Z,934.35
2016-11-08T12:29:15.257Z,934.38
2016-11-08T12:30:25.669Z,934.4
2016-11-08T12:31:36.087Z,934.41
2016-11-08T12:32:46.524Z,934.43
2016-11-08T12:33:56.938Z,934.44
2016-11-08T12:35:07.366Z,934.42
2016-11-08T12:36:17.982Z,934.46
2016-11-08T12:37:28.402Z,934.44
2016-11-08T12:38:53.366Z,934.43
2016-11-08T12:40:03.775Z,934.41
2016-11-08T12:42:39.351Z,934.37
2016-11-08T12:43:49.766Z,934.35
2016-11-08T12:45:00.178Z,934.38
2016-11-08T12:46:10.600Z,934.38
2016-11-08T12:47:21.115Z,934.37
2016-11-08T12:48:31.535Z,934.3
2016-11-08T12:49:41.952Z,934.36
2016-11-08T12:50:52.364Z,934.37
2016-11-08T12:52:02.781Z,934.38
2016-11-08T12:53:13.196Z,934.36
2016-11-08T12:54:38.160Z,934.38
2016-11-08T12:55:48.617Z,934.35
2016-11-08T12:58:23.997Z,934.34
2016-11-08T12:59:34.414Z,934.33
2016-11-08T13:00:44.860Z,934.31
2016-11-08T13:01:55.279Z,934.26
2016-11-08T13:03:05.696Z,934.24
2016-11-08T13:04:16.833Z,934.26
2016-11-08T13:05:27.253Z,934.24
2016-11-08T13:06:37.701Z,934.21
2016-11-08T13:08:02.673Z,934.23
2016-11-08T13:09:13.093Z,934.22
2016-11-08T13:10:23.744Z,934.19
2016-11-08T13:11:34.169Z,934.17
2016-11-08T13:14:09.557Z,934.18
2016-11-08T13:15:20.203Z,934.14
2016-11-08T13:16:30.626Z,934.15
2016-11-08T13:17:41.043Z,934.08
2016-11-08T13:18:51.461Z,934.11
2016-11-08T13:20:01.881Z,934.05
2016-11-08T13:21:12.296Z,934.05
2016-11-08T13:22:37.265Z,934.05
2016-11-08T13:23:47.690Z,934.05
2016-11-08T13:25:12.657Z,934.1
2016-11-08T13:26:23.074Z,934.06
2016-11-08T13:27:33.495Z,934.08
2016-11-08T13:28:43.908Z,934.07
2016-11-08T13:29:54.816Z,934.04
2016-11-08T13:31:05.228Z,934.02
2016-11-08T13:32:15.648Z,934.03
2016-11-08T13:33:26.068Z,934.04
2016-11-08T13:34:36.490Z,934.07
2016-11-08T13:35:46.945Z,934.04
2016-11-08T13:36:57.846Z,934.03
2016-11-08T13:38:08.264Z,934.05
2016-11-08T13:40:58.205Z,934.08
2016-11-08T13:42:08.824Z,934.04
2016-11-08T13:43:19.225Z,933.98
2016-11-08T13:44:29.594Z,933.96
2016-11-08T13:45:39.932Z,933.94
2016-11-08T13:46:50.255Z,933.9
2016-11-08T13:48:15.318Z,933.92
2016-11-08T13:49:40.213Z,933.97
2016-11-08T13:50:50.571Z,933.9
2016-11-08T13:52:00.912Z,933.92
2016-11-08T13:53:11.248Z,933.85
2016-11-08T13:54:21.572Z,933.82
2016-11-08T13:55:31.898Z,933.82
2016-11-08T13:56:42.229Z,933.82
2016-11-08T13:57:52.567Z,933.78
2016-11-08T13:59:03.094Z,933.79
2016-11-08T14:00:13.425Z,933.76
2016-11-08T14:01:23.750Z,933.79
2016-11-08T14:02:34.079Z,933.76
2016-11-08T14:03:59.454Z,933.82
2016-11-08T14:05:24.556Z,933.79
2016-11-08T14:06:34.883Z,933.77
2016-11-08T14:07:45.213Z,933.79
2016-11-08T14:08:55.552Z,933.74
2016-11-08T14:10:05.888Z,933.72
2016-11-08T14:11:30.791Z,933.67
2016-11-08T14:12:41.119Z,933.72
2016-11-08T14:13:51.450Z,933.67
2016-11-08T14:15:01.779Z,933.67
2016-11-08T14:16:12.112Z,933.67
2016-11-08T14:17:22.922Z,933.64
2016-11-08T14:18:33.289Z,933.68
2016-11-08T14:19:43.615Z,933.68
2016-11-08T14:20:54.148Z,933.66
2016-11-08T14:22:04.479Z,933.68
2016-11-08T14:23:14.805Z,933.69
2016-11-08T14:24:25.136Z,933.71
2016-11-08T14:25:35.459Z,933.68
2016-11-08T14:26:45.823Z,933.72
2016-11-08T14:27:56.184Z,933.66
2016-11-08T14:30:31.863Z,933.64
2016-11-08T14:31:42.283Z,933.63
2016-11-08T14:32:52.914Z,933.62
2016-11-08T14:34:03.342Z,933.59
2016-11-08T14:35:13.908Z,933.6
2016-11-08T14:36:24.446Z,933.66
2016-11-08T14:37:35.689Z,933.59
2016-11-08T14:38:46.231Z,933.6
2016-11-08T14:39:56.771Z,933.61
2016-11-08T14:41:07.378Z,933.58
2016-11-08T14:42:32.447Z,933.61
2016-11-08T14:43:42.989Z,933.6
2016-11-08T14:44:53.528Z,933.61
2016-11-08T14:46:04.066Z,933.58
2016-11-08T14:47:14.610Z,933.65
2016-11-08T14:48:25.160Z,933.67
2016-11-08T14:49:35.698Z,933.6
2016-11-08T14:50:46.237Z,933.54
2016-11-08T14:51:56.778Z,933.51
2016-11-08T14:53:07.322Z,933.49
2016-11-08T14:54:17.861Z,933.37
2016-11-08T14:55:28.434Z,933.47
2016-11-08T14:58:04.534Z,933.4
2016-11-08T14:59:15.079Z,933.4
2016-11-08T15:00:25.728Z,933.34
2016-11-08T15:01:36.268Z,933.36
2016-11-08T15:02:46.805Z,933.33
2016-11-08T15:03:57.341Z,933.31
2016-11-08T15:05:07.880Z,933.3
2016-11-08T15:07:58.524Z,933.31
2016-11-08T15:09:09.074Z,933.32
2016-11-08T15:10:19.654Z,933.29
2016-11-08T15:11:45.247Z,933.28
2016-11-08T15:12:55.791Z,933.25
2016-11-08T15:14:06.258Z,933.18
2016-11-08T15:15:16.705Z,933.2
2016-11-08T15:16:27.359Z,933.2
2016-11-08T15:17:37.800Z,933.23
2016-11-08T15:18:48.248Z,933.18
2016-11-08T15:20:13.236Z,933.18
2016-11-08T15:21:23.677Z,933.13
2016-11-08T15:22:34.129Z,933.11
2016-11-08T15:23:44.575Z,933.07
2016-11-08T15:25:09.562Z,933.06